Time;durP1;ratioP1;P1;durP2;ratioP2;P2;SDS_P1;SDS_P2;PMS_P1;PMS_P2;Temp;Humidity;BMP_temperature;BMP_pressure;BME280_temperature;BME280_humidity;BME280_pressure;Samples;Min_cycle;Max_cycle;Signal;HPM_P1;HPM_P2
2022/12/15 00:39:14;;;;;;;11.93;11.02;;;;;;;2.80;79.21;94128.88;5118626;28;20180;-67
2022/12/15 00:41:42;;;;;;;11.70;10.80;;;;;;;2.83;79.49;94130.13;5118500;28;20260;-67
2022/12/15 00:44:08;;;;;;;11.38;10.48;;;;;;;2.80;78.96;94117.19;5117239;28;20647;-67
2022/12/15 00:46:54;;;;;;;11.80;10.80;;;;;;;2.78;78.98;94108.53;5117740;28;20195;-67
2022/12/15 01:22:23;;;;;;;13.90;12.80;;;;;;;2.74;80.13;94043.03;5117697;28;20200;-67
2022/12/15 01:24:50;;;;;;;13.95;12.75;;;;;;;2.70;80.11;94063.09;5117640;28;20207;-67
2022/12/15 01:27:17;;;;;;;12.82;11.82;;;;;;;2.70;80.28;94049.47;5116924;28;20279;-67
2022/12/15 01:29:45;;;;;;;12.40;11.40;;;;;;;2.69;80.71;94058.75;5116670;28;20199;-67
2022/12/15 01:32:13;;;;;;;12.77;11.68;;;;;;;2.67;80.11;94061.81;5116980;28;20188;-67
2022/12/15 01:34:41;;;;;;;12.60;11.50;;;;;;;2.70;80.53;94076.72;5116871;28;20266;-67
2022/12/15 01:37:08;;;;;;;12.00;11.00;;;;;;;2.72;80.64;94071.72;5116834;28;20210;-67
2022/12/15 01:42:21;;;;;;;11.90;10.93;;;;;;;2.81;80.44;94054.22;5082020;28;20209;-67
2022/12/15 01:44:51;;;;;;;12.02;11.13;;;;;;;2.81;80.89;94045.25;5116565;28;20188;-67
2022/12/15 01:47:18;;;;;;;10.85;10.05;;;;;;;2.84;80.78;94044.59;5116345;28;20188;-67
2022/12/15 01:49:46;;;;;;;11.05;10.18;;;;;;;2.86;80.87;94050.50;5116055;28;20192;-69
2022/12/15 01:52:14;;;;;;;10.93;10.02;;;;;;;2.88;80.43;94042.81;5116630;28;20199;-67
2022/12/15 01:54:43;;;;;;;10.95;10.10;;;;;;;2.89;80.44;94017.97;5116649;28;20196;-67
2022/12/15 01:57:17;;;;;;;10.40;9.60;;;;;;;2.88;80.55;94010.94;5116086;28;20207;-67
2022/12/15 01:59:49;;;;;;;10.30;9.50;;;;;;;2.94;80.31;94003.38;5115812;28;20195;-67
2022/12/15 02:02:17;;;;;;;9.90;9.20;;;;;;;2.97;79.96;93997.25;5116022;28;20196;-67
2022/12/15 02:04:46;;;;;;;9.90;9.10;;;;;;;3.02;80.07;93997.06;5116032;28;20188;-67
2022/12/15 02:07:13;;;;;;;8.60;7.90;;;;;;;3.03;79.98;93982.31;5150450;27;20188;-67
2022/12/15 02:09:41;;;;;;;8.00;7.40;;;;;;;3.02;80.39;94018.06;5115819;28;20560;-67
2022/12/15 02:12:16;;;;;;;7.20;6.60;;;;;;;3.02;79.67;94007.97;5117042;28;20180;-67
2022/12/15 02:14:58;;;;;;;7.13;6.63;;;;;;;3.09;80.04;94002.00;5116890;28;20183;-67
2022/12/15 02:17:33;;;;;;;8.02;7.35;;;;;;;3.09;79.64;93969.28;5115961;28;20584;-67
2022/12/15 02:20:32;;;;;;;7.88;7.15;;;;;;;3.07;79.78;93990.59;5116186;28;20241;-67
2022/12/15 02:23:38;;;;;;;7.60;6.97;;;;;;;3.04;79.46;93964.03;5116633;28;20231;-67
2022/12/15 02:26:50;;;;;;;7.43;6.82;;;;;;;3.04;79.17;93973.00;5090196;28;20203;-67
2022/12/15 02:29:30;;;;;;;6.50;6.00;;;;;;;3.04;80.13;93985.81;5083738;28;20204;-67
2022/12/15 02:32:00;;;;;;;6.20;5.70;;;;;;;3.03;79.92;93993.19;5115143;28;20260;-67
2022/12/15 02:34:31;;;;;;;6.90;6.30;;;;;;;3.03;79.79;94008.75;5115487;28;20204;-67
2022/12/15 02:37:00;;;;;;;6.93;6.35;;;;;;;3.04;80.31;93994.00;5115130;28;20188;-67
2022/12/15 02:39:27;;;;;;;6.88;6.28;;;;;;;2.99;80.59;93967.75;5115356;28;20199;-67
2022/12/15 02:41:54;;;;;;;6.78;6.28;;;;;;;2.99;81.00;93986.03;5098328;28;20200;-67
2022/12/15 02:44:24;;;;;;;6.60;6.10;;;;;;;3.03;80.63;93989.69;5115806;28;20214;-67
2022/12/15 02:47:14;;;;;;;6.90;6.40;;;;;;;3.03;80.63;94006.03;5115882;28;20600;-67
2022/12/15 02:49:53;;;;;;;7.10;6.60;;;;;;;3.04;80.62;94030.19;5112553;28;20212;-67
2022/12/15 02:52:30;;;;;;;7.65;7.05;;;;;;;3.05;81.15;94026.38;5115572;28;20210;-67
2022/12/15 02:55:09;;;;;;;8.25;7.65;;;;;;;3.07;81.06;94015.91;5115956;28;20252;-67
2022/12/15 02:57:43;;;;;;;10.82;9.82;;;;;;;3.05;80.55;94022.81;5115993;28;20179;-67
2022/12/15 03:00:12;;;;;;;9.32;8.63;;;;;;;3.05;80.46;94018.19;5115587;28;20596;-67
2022/12/15 03:02:41;;;;;;;9.95;9.05;;;;;;;3.04;81.15;94018.50;5114931;28;20200;-67
2022/12/15 03:05:10;;;;;;;10.77;9.77;;;;;;;3.06;80.49;94033.41;5115227;28;20203;-67
2022/12/15 03:07:36;;;;;;;11.07;10.18;;;;;;;3.05;81.05;94031.81;5114883;28;20207;-67
2022/12/15 03:10:06;;;;;;;11.27;10.30;;;;;;;3.04;80.64;94021.22;5115891;28;20183;-67
2022/12/15 03:12:33;;;;;;;13.50;12.35;;;;;;;3.03;80.54;94019.66;5115873;28;20191;-66
2022/12/15 03:14:59;;;;;;;12.57;11.43;;;;;;;3.02;80.63;94018.06;5115077;28;20582;-67
2022/12/15 03:17:26;;;;;;;12.25;11.13;;;;;;;2.97;80.78;94023.69;5114421;28;20204;-67
2022/12/15 03:19:53;;;;;;;16.65;14.95;;;;;;;2.97;81.34;94004.63;5114424;28;20198;-67
2022/12/15 03:22:21;;;;;;;17.17;15.38;;;;;;;2.97;80.98;94020.97;5115386;28;20187;-67
2022/12/15 03:24:48;;;;;;;14.48;13.15;;;;;;;2.93;81.45;94034.44;5114896;28;20258;-67
2022/12/15 03:27:15;;;;;;;12.85;11.65;;;;;;;2.96;81.16;94022.88;5114922;28;20693;-67
2022/12/15 03:29:41;;;;;;;10.60;9.70;;;;;;;2.94;81.27;94027.88;5115272;28;20195;-67
2022/12/15 03:32:08;;;;;;;12.10;10.90;;;;;;;3.01;81.17;94011.00;5114550;28;20231;-68
2022/12/15 03:34:35;;;;;;;12.70;11.40;;;;;;;3.05;81.14;94017.38;5115184;28;20192;-67
2022/12/15 03:37:02;;;;;;;11.82;10.63;;;;;;;3.08;80.91;94030.34;5114598;28;20207;-67
2022/12/15 03:39:30;;;;;;;11.40;10.30;;;;;;;3.08;80.81;94020.22;5114673;28;20184;-67
2022/12/15 03:41:56;;;;;;;10.55;9.55;;;;;;;3.09;80.49;94016.41;5114545;28;20192;-67
2022/12/15 03:44:23;;;;;;;8.55;7.75;;;;;;;3.13;80.56;94020.06;5114782;28;20220;-67
2022/12/15 03:46:51;;;;;;;8.07;7.47;;;;;;;3.16;80.70;94032.22;5115460;28;20199;-67
2022/12/15 03:49:18;;;;;;;9.35;8.57;;;;;;;3.22;80.23;94043.72;5115716;28;20230;-67
2022/12/15 03:51:45;;;;;;;8.77;8.07;;;;;;;3.26;79.97;94055.53;5115096;28;20184;-67
2022/12/15 03:54:12;;;;;;;8.52;7.82;;;;;;;3.29;80.26;94052.16;5114831;28;20195;-67
2022/12/15 03:56:40;;;;;;;8.93;8.20;;;;;;;3.29;79.55;94049.44;5114247;28;20203;-67
2022/12/15 03:59:07;;;;;;;10.15;9.23;;;;;;;3.28;80.04;94064.19;5114478;28;20195;-67
2022/12/15 04:01:35;;;;;;;10.05;9.25;;;;;;;3.30;79.84;94065.44;5114456;28;20292;-67
2022/12/15 04:04:03;;;;;;;10.18;9.38;;;;;;;3.29;79.31;94072.03;5114252;28;20216;-67
2022/12/15 04:06:30;;;;;;;10.48;9.65;;;;;;;3.30;79.27;94057.28;5114414;28;20537;-67
2022/12/15 04:08:57;;;;;;;9.98;9.18;;;;;;;3.26;79.74;94063.72;5114712;28;20202;-67
2022/12/15 04:11:24;;;;;;;8.73;8.13;;;;;;;3.25;79.31;94056.69;5114540;28;20188;-67
2022/12/15 04:13:52;;;;;;;9.18;8.48;;;;;;;3.17;79.33;94063.00;5113991;28;20277;-67
2022/12/15 04:16:19;;;;;;;9.10;8.40;;;;;;;3.18;80.06;94056.41;5114813;28;20188;-67
2022/12/15 04:18:45;;;;;;;9.13;8.38;;;;;;;3.13;79.95;94062.84;5114853;28;20215;-67
2022/12/15 04:21:11;;;;;;;8.75;8.15;;;;;;;3.10;79.39;94077.13;5113916;28;20231;-67
2022/12/15 04:23:38;;;;;;;8.77;8.07;;;;;;;3.12;80.26;94072.13;5114126;28;20215;-67
2022/12/15 05:32:07;;;;;;;8.07;7.38;;;;;;;3.24;80.77;94172.28;5116350;28;20244;-67
2022/12/15 05:34:35;;;;;;;7.93;7.32;;;;;;;3.25;80.53;94187.50;5116904;28;20203;-72
2022/12/15 05:37:05;;;;;;;7.78;7.10;;;;;;;3.26;79.85;94176.25;5116405;28;20191;-71
2022/12/15 05:39:32;;;;;;;7.65;6.95;;;;;;;3.23;79.79;94196.00;5116500;28;20184;-68
2022/12/15 05:41:59;;;;;;;7.20;6.70;;;;;;;3.25;80.08;94204.63;5116800;28;20214;-69
2022/12/15 05:44:26;;;;;;;6.80;6.20;;;;;;;3.27;80.19;94220.69;5116754;28;20219;-74
2022/12/15 05:46:53;;;;;;;6.82;6.32;;;;;;;3.29;80.01;94210.22;5116722;28;20204;-68
2022/12/15 05:49:22;;;;;;;7.43;6.82;;;;;;;3.29;79.90;94208.31;5116039;28;20188;-68
2022/12/15 05:51:48;;;;;;;7.38;6.78;;;;;;;3.38;79.97;94241.00;5115894;28;20192;-68
2022/12/15 05:54:19;;;;;;;6.82;6.32;;;;;;;3.42;79.85;94241.13;5116884;28;20200;-69
2022/12/15 05:56:46;;;;;;;6.38;5.85;;;;;;;3.44;79.37;94239.66;5116509;28;20202;-69
2022/12/15 05:59:13;;;;;;;6.40;5.90;;;;;;;3.49;79.37;94255.84;5116326;28;20203;-69
2022/12/15 06:01:40;;;;;;;6.38;5.88;;;;;;;3.50;79.11;94254.72;5116116;28;20260;-69
2022/12/15 06:04:07;;;;;;;6.55;6.05;;;;;;;3.51;78.96;94252.78;5116021;28;20226;-69
2022/12/15 06:06:35;;;;;;;6.85;6.32;;;;;;;3.50;79.20;94262.09;5116463;28;20238;-69
2022/12/15 06:09:02;;;;;;;6.50;6.00;;;;;;;3.49;79.52;94250.41;5116257;28;20268;-69
2022/12/15 06:11:30;;;;;;;7.28;6.72;;;;;;;3.46;79.64;94267.41;5116305;28;20283;-69
2022/12/15 06:13:58;;;;;;;7.10;6.50;;;;;;;3.51;79.39;94271.88;5115746;28;20192;-69
2022/12/15 06:16:27;;;;;;;7.50;6.88;;;;;;;3.52;79.43;94274.28;5116276;28;20206;-69
2022/12/15 06:18:55;;;;;;;7.57;6.88;;;;;;;3.50;79.77;94271.06;5115895;28;20230;-69
2022/12/15 06:21:24;;;;;;;7.72;7.13;;;;;;;3.53;79.73;94270.44;5115510;28;20297;-69
2022/12/15 06:23:54;;;;;;;7.60;7.00;;;;;;;3.57;79.47;94289.66;5116589;28;20272;-72
2022/12/15 06:26:23;;;;;;;7.82;7.22;;;;;;;3.57;79.65;94285.00;5116724;27;20260;-69
2022/12/15 06:28:52;;;;;;;8.32;7.63;;;;;;;3.56;79.83;94274.44;5116118;28;20217;-72
2022/12/15 06:31:21;;;;;;;9.43;8.65;;;;;;;3.54;80.16;94274.75;5116344;28;20199;-72
2022/12/15 06:33:48;;;;;;;7.63;7.03;;;;;;;3.54;79.79;94301.22;5117084;28;20180;-71
2022/12/15 06:36:17;;;;;;;6.70;6.20;;;;;;;3.61;80.10;94304.22;5115751;28;20255;-72
2022/12/15 06:38:44;;;;;;;6.63;6.13;;;;;;;3.61;80.01;94301.50;5115650;28;20196;-70
2022/12/15 06:41:12;;;;;;;6.90;6.40;;;;;;;3.67;79.75;94304.84;5115414;28;20200;-70
2022/12/15 06:43:38;;;;;;;7.32;6.72;;;;;;;3.67;79.93;94302.09;5115397;28;20184;-70
2022/12/15 06:46:08;;;;;;;6.47;5.97;;;;;;;3.74;79.40;94303.22;5116040;28;20188;-70
2022/12/15 06:48:35;;;;;;;6.82;6.22;;;;;;;3.86;79.23;94302.50;5115749;28;20203;-70
2022/12/15 06:51:03;;;;;;;6.88;6.38;;;;;;;3.92;79.04;94314.03;5115515;28;20623;-70
2022/12/15 06:53:30;;;;;;;7.30;6.70;;;;;;;3.95;78.69;94308.72;5115697;28;20180;-72
2022/12/15 06:56:00;;;;;;;8.57;7.88;;;;;;;3.96;78.42;94307.59;5116173;28;20312;-70
2022/12/15 06:58:27;;;;;;;9.38;8.60;;;;;;;4.00;78.24;94318.66;5116091;28;20187;-70
2022/12/15 07:00:54;;;;;;;11.43;10.52;;;;;;;4.03;78.15;94321.53;5115271;28;20200;-70
2022/12/15 07:03:23;;;;;;;11.05;10.05;;;;;;;4.05;78.15;94324.72;5116379;28;20198;-69
2022/12/15 07:06:01;;;;;;;10.30;9.50;;;;;;;4.05;78.06;94332.91;5115197;28;20211;-70
2022/12/15 07:08:28;;;;;;;10.73;9.93;;;;;;;4.11;78.61;94333.53;5115014;28;20191;-70
2022/12/15 07:10:54;;;;;;;10.63;9.80;;;;;;;4.18;77.98;94338.47;5115188;28;20204;-70
2022/12/15 07:13:21;;;;;;;10.23;9.43;;;;;;;4.23;78.01;94344.50;5115965;28;20298;-71
2022/12/15 07:15:48;;;;;;;9.45;8.68;;;;;;;4.29;78.31;94347.88;5115893;28;20218;-70
2022/12/15 07:18:16;;;;;;;10.75;9.82;;;;;;;4.31;77.85;94351.06;5114825;28;20348;-70
2022/12/15 07:20:44;;;;;;;12.23;11.20;;;;;;;4.30;77.35;94358.44;5114885;28;20241;-71
2022/12/15 07:23:11;;;;;;;11.77;10.77;;;;;;;4.34;77.56;94355.84;5115891;28;20184;-72
2022/12/15 07:25:39;;;;;;;12.13;11.13;;;;;;;4.36;77.18;94356.34;5115403;28;20208;-70
2022/12/15 07:28:07;;;;;;;12.63;11.52;;;;;;;4.37;77.17;94354.41;5114895;28;20199;-73
2022/12/15 07:30:34;;;;;;;13.50;12.40;;;;;;;4.44;77.29;94363.66;5115573;28;20199;-70
2022/12/15 07:33:01;;;;;;;13.63;12.52;;;;;;;4.45;77.58;94365.25;5115151;28;20191;-72
2022/12/15 07:35:28;;;;;;;14.57;13.35;;;;;;;4.49;77.51;94368.13;5115888;28;20195;-70
2022/12/15 07:37:56;;;;;;;14.30;13.10;;;;;;;4.50;77.69;94375.19;5115660;28;20188;-70
2022/12/15 07:40:23;;;;;;;14.25;13.05;;;;;;;4.55;78.04;94364.88;5114923;28;20252;-72
2022/12/15 07:42:50;;;;;;;14.10;12.95;;;;;;;4.65;78.68;94368.34;5115355;28;20196;-74
2022/12/15 07:45:17;;;;;;;14.98;13.68;;;;;;;4.67;77.84;94371.53;5115912;28;20219;-73
2022/12/15 07:47:44;;;;;;;14.82;13.55;;;;;;;4.66;77.42;94365.28;5114828;28;20539;-74
2022/12/15 07:50:11;;;;;;;12.48;11.27;;;;;;;4.65;77.76;94377.34;5115299;28;20286;-73
2022/12/15 07:52:38;;;;;;;11.18;10.20;;;;;;;4.64;77.65;94378.47;5114704;28;20610;-73
2022/12/15 07:55:08;;;;;;;10.48;9.60;;;;;;;4.75;78.02;94376.13;5115876;28;20195;-73
2022/12/15 07:57:35;;;;;;;11.48;10.52;;;;;;;4.82;76.97;94392.81;5114857;28;20217;-70
2022/12/15 08:00:04;;;;;;;11.07;10.18;;;;;;;4.83;77.07;94406.16;5114621;28;20199;-70
2022/12/15 08:02:31;;;;;;;10.82;9.90;;;;;;;4.89;77.50;94405.94;5114892;28;20238;-70
2022/12/15 08:05:00;;;;;;;9.30;8.52;;;;;;;4.92;77.37;94408.00;5118350;28;20219;-70
2022/12/15 08:07:27;;;;;;;10.05;9.25;;;;;;;4.95;77.06;94412.81;5119358;28;20195;-69
2022/12/15 08:09:54;;;;;;;14.93;13.48;;;;;;;4.90;77.88;94407.53;5118568;28;20256;-70
2022/12/15 08:12:22;;;;;;;15.13;13.70;;;;;;;4.88;77.93;94404.34;5118565;28;20203;-71
2022/12/15 08:14:49;;;;;;;15.93;14.32;;;;;;;4.85;78.11;94410.47;5118925;28;20203;-71
2022/12/15 08:17:16;;;;;;;15.02;13.63;;;;;;;4.88;78.47;94401.63;5118728;28;20199;-72
2022/12/15 08:19:43;;;;;;;15.07;13.68;;;;;;;4.89;78.28;94406.72;5119342;28;20180;-72
2022/12/15 08:22:10;;;;;;;14.88;13.50;;;;;;;4.93;78.30;94423.25;5119549;28;20198;-72
2022/12/15 08:24:39;;;;;;;15.27;13.88;;;;;;;4.98;78.28;94420.34;5119103;28;20222;-71
2022/12/15 08:27:05;;;;;;;16.02;14.52;;;;;;;5.05;78.43;94429.63;5119064;28;20283;-72
2022/12/15 08:29:33;;;;;;;15.80;14.40;;;;;;;5.07;77.97;94430.06;5119374;28;20194;-71
2022/12/15 08:32:00;;;;;;;15.27;13.95;;;;;;;5.11;77.93;94432.94;5118201;28;20199;-72
2022/12/15 08:34:27;;;;;;;14.95;13.55;;;;;;;5.23;77.79;94440.41;5118548;28;20200;-73
2022/12/15 08:36:54;;;;;;;15.77;14.27;;;;;;;5.35;78.22;94440.47;5118520;28;20203;-72
2022/12/15 08:39:21;;;;;;;16.85;15.40;;;;;;;5.42;77.52;94440.72;5118705;28;20249;-72
2022/12/15 08:41:48;;;;;;;15.90;14.55;;;;;;;5.43;77.37;94430.59;5117899;28;20626;-72
2022/12/15 08:44:15;;;;;;;15.20;13.82;;;;;;;5.39;76.97;94435.91;5117861;28;20596;-72
2022/12/15 08:46:43;;;;;;;13.00;11.70;;;;;;;5.36;76.76;94439.31;5118228;28;20192;-72
2022/12/15 08:49:10;;;;;;;12.85;11.48;;;;;;;5.36;76.36;94449.47;5118230;28;20198;-72
2022/12/15 08:51:37;;;;;;;12.00;10.90;;;;;;;5.38;76.47;94456.22;5118542;28;20184;-72
2022/12/15 08:54:04;;;;;;;10.40;9.55;;;;;;;5.46;75.81;94449.06;5118241;28;20195;-71
2022/12/15 08:56:30;;;;;;;11.32;10.48;;;;;;;5.44;75.73;94452.13;5118556;28;20183;-71
2022/12/15 08:58:59;;;;;;;12.90;11.77;;;;;;;5.44;75.93;94448.59;5117931;28;20260;-71
2022/12/15 09:01:28;;;;;;;13.55;12.35;;;;;;;5.46;76.27;94444.38;5117636;28;20200;-71
2022/12/15 09:03:57;;;;;;;13.85;12.75;;;;;;;5.51;76.06;94451.56;5117471;28;20245;-72
2022/12/15 09:06:26;;;;;;;14.38;13.07;;;;;;;5.53;75.88;94441.91;5118400;28;20235;-71
2022/12/15 09:08:55;;;;;;;14.02;12.82;;;;;;;5.55;76.10;94441.56;5117531;28;20631;-72
2022/12/15 09:11:22;;;;;;;14.88;13.68;;;;;;;5.58;76.30;94442.84;5118428;28;20195;-71
2022/12/15 09:13:49;;;;;;;15.25;14.00;;;;;;;5.64;76.51;94445.03;5117782;28;20200;-72
2022/12/15 09:16:18;;;;;;;15.10;13.90;;;;;;;5.71;76.89;94442.53;5118251;28;20184;-70
2022/12/15 09:18:47;;;;;;;15.82;14.43;;;;;;;5.73;76.60;94436.72;5118398;28;20184;-70
2022/12/15 09:21:15;;;;;;;17.10;15.52;;;;;;;5.77;76.76;94434.91;5117913;27;20236;-70
2022/12/15 09:23:43;;;;;;;17.77;16.17;;;;;;;5.83;76.17;94438.25;5118206;28;20180;-71
2022/12/15 09:26:10;;;;;;;17.52;16.10;;;;;;;5.89;76.67;94447.84;5117948;27;20200;-71
2022/12/15 09:28:38;;;;;;;17.65;16.25;;;;;;;5.96;76.51;94439.91;5117144;28;20208;-71
2022/12/15 09:31:06;;;;;;;18.17;16.58;;;;;;;5.95;76.04;94454.72;5117824;28;20211;-71
2022/12/15 09:33:33;;;;;;;18.85;17.15;;;;;;;5.99;75.92;94444.69;5117027;28;20203;-71
2022/12/15 09:36:00;;;;;;;18.67;17.08;;;;;;;6.03;75.89;94445.63;5116806;28;20199;-71
2022/12/15 09:38:28;;;;;;;20.05;18.17;;;;;;;6.06;75.54;94446.88;5117268;28;20195;-70
2022/12/15 09:40:56;;;;;;;20.08;18.38;;;;;;;6.11;76.15;94454.88;5117456;28;20195;-71
2022/12/15 09:43:24;;;;;;;19.50;17.70;;;;;;;6.25;76.67;94445.22;5117681;28;20270;-70
2022/12/15 09:45:57;;;;;;;19.27;17.38;;;;;;;6.38;75.95;94440.53;5116705;28;20223;-71
2022/12/15 09:48:26;;;;;;;19.13;17.30;;;;;;;6.44;75.11;94449.34;5117768;28;20192;-71
2022/12/15 09:50:54;;;;;;;19.60;17.83;;;;;;;6.40;74.68;94448.41;5117789;28;20187;-70
2022/12/15 09:53:29;;;;;;;19.10;17.45;;;;;;;6.37;75.17;94455.38;5117509;28;20191;-70
2022/12/15 09:56:07;;;;;;;17.75;15.93;;;;;;;6.37;75.39;94454.56;5116472;28;20203;-71
2022/12/15 09:58:41;;;;;;;16.90;15.13;;;;;;;6.36;75.27;94455.72;5117380;28;20188;-70
2022/12/15 10:01:13;;;;;;;15.55;14.10;;;;;;;6.36;75.59;94442.03;5116628;28;20202;-71
2022/12/15 10:03:51;;;;;;;16.25;14.57;;;;;;;6.44;75.63;94439.16;5116493;28;20188;-70
2022/12/15 10:06:20;;;;;;;16.77;15.27;;;;;;;6.51;75.78;94438.59;5116824;28;20212;-71
2022/12/15 10:08:50;;;;;;;25.83;23.38;;;;;;;6.61;75.41;94437.31;5117220;28;20232;-69
2022/12/15 10:11:21;;;;;;;28.92;26.38;;;;;;;6.67;75.36;94442.25;5116357;28;20219;-70
2022/12/15 10:13:52;;;;;;;28.38;25.77;;;;;;;6.66;74.61;94445.34;5116123;28;20201;-70
2022/12/15 10:16:24;;;;;;;24.42;22.33;;;;;;;6.73;74.98;94440.09;5116640;28;20219;-70
2022/12/15 10:18:57;;;;;;;24.92;22.90;;;;;;;6.74;74.83;94439.72;5116080;28;20196;-70
2022/12/15 10:21:27;;;;;;;26.98;24.48;;;;;;;6.79;74.94;94444.19;5115679;28;20267;-70
2022/12/15 10:23:57;;;;;;;30.20;27.40;;;;;;;6.80;74.97;94454.00;5115827;28;20196;-70
2022/12/15 10:26:27;;;;;;;35.17;31.95;;;;;;;6.77;75.01;94454.69;5115159;28;20223;-70
2022/12/15 10:29:06;;;;;;;39.53;35.83;;;;;;;6.76;75.25;94458.59;5115673;28;20200;-70
2022/12/15 10:31:37;;;;;;;33.15;29.95;;;;;;;6.77;75.61;94454.69;5115420;28;20203;-70
2022/12/15 10:34:10;;;;;;;37.47;34.10;;;;;;;6.86;75.54;94458.13;5115807;28;20252;-70
2022/12/15 10:36:37;;;;;;;48.83;44.05;;;;;;;6.86;75.24;94458.13;5115571;28;20203;-70
2022/12/15 10:39:05;;;;;;;48.95;44.15;;;;;;;6.87;75.33;94458.91;5115696;28;20218;-70
2022/12/15 10:41:32;;;;;;;48.72;44.08;;;;;;;6.92;75.36;94469.66;5115696;28;20188;-70
2022/12/15 10:44:01;;;;;;;47.00;42.45;;;;;;;6.96;75.79;94456.84;5115415;28;20200;-70
2022/12/15 10:46:30;;;;;;;46.88;42.60;;;;;;;7.03;75.90;94457.06;5115576;28;20320;-70
2022/12/15 10:48:59;;;;;;;43.47;39.63;;;;;;;7.11;75.13;94455.34;5115455;28;20198;-69
2022/12/15 10:51:28;;;;;;;42.35;38.38;;;;;;;7.15;75.02;94461.72;5115604;28;20200;-70
2022/12/15 10:54:05;;;;;;;44.03;40.03;;;;;;;7.15;75.37;94457.06;5115253;28;20284;-69
2022/12/15 10:56:34;;;;;;;40.90;37.20;;;;;;;7.15;75.65;94461.72;5115385;28;20191;-70
2022/12/15 10:59:03;;;;;;;43.40;39.53;;;;;;;7.22;75.48;94465.47;5115545;28;20192;-70
2022/12/15 11:01:31;;;;;;;59.80;54.58;;;;;;;7.19;75.25;94457.97;5115118;28;20199;-70
2022/12/15 11:03:58;;;;;;;57.67;52.70;;;;;;;7.15;74.93;94461.72;5115145;28;20256;-69
2022/12/15 11:06:26;;;;;;;53.58;48.80;;;;;;;7.07;75.10;94462.66;5115648;28;20208;-70
2022/12/15 11:08:54;;;;;;;51.28;46.53;;;;;;;7.09;75.08;94465.88;5115500;28;20195;-70
2022/12/15 11:14:15;;;;;;;52.00;47.20;;;;;;;6.97;75.79;94459.25;5114712;28;20191;-70
2022/12/15 11:16:55;;;;;;;55.05;49.50;;;;;;;6.99;76.19;94462.44;5115283;28;20191;-70
2022/12/15 11:19:30;;;;;;;56.13;50.47;;;;;;;7.07;76.39;94465.41;5115426;28;20198;-70
2022/12/15 11:24:53;;;;;;;56.20;50.58;;;;;;;7.06;75.69;94464.59;5114632;28;20199;-70
2022/12/15 11:27:26;;;;;;;55.22;50.03;;;;;;;7.07;75.73;94460.72;5114995;28;20207;-70
2022/12/15 11:30:02;;;;;;;55.58;50.13;;;;;;;7.11;75.93;94461.59;5115920;28;20187;-70
2022/12/15 11:32:30;;;;;;;59.03;53.40;;;;;;;7.15;75.95;94462.53;5115280;28;20376;-70
2022/12/15 11:34:56;;;;;;;54.55;49.15;;;;;;;7.18;76.15;94459.09;5115862;28;20199;-70
2022/12/15 11:37:38;;;;;;;51.58;46.65;;;;;;;7.25;76.20;94464.00;5117030;28;20506;-70
2022/12/15 11:40:30;;;;;;;50.90;46.00;;;;;;;7.22;75.87;94473.69;5119959;28;20191;-69
2022/12/15 11:43:18;;;;;;;54.97;49.45;;;;;;;7.26;75.97;94476.56;5118177;28;20203;-69
2022/12/15 11:45:51;;;;;;;52.70;47.53;;;;;;;7.29;75.95;94464.88;5119811;28;20260;-70
2022/12/15 11:48:21;;;;;;;46.65;42.35;;;;;;;7.29;75.79;94467.63;5120003;28;20195;-70
2022/12/15 11:50:59;;;;;;;40.97;37.20;;;;;;;7.45;75.54;94470.47;5119212;28;20198;-71
2022/12/15 11:53:39;;;;;;;51.03;45.95;;;;;;;7.72;75.21;94468.88;5119721;28;20184;-69
2022/12/15 11:56:15;;;;;;;54.75;49.45;;;;;;;7.92;73.82;94476.13;5119310;28;20206;-69
2022/12/15 11:58:59;;;;;;;51.40;46.47;;;;;;;7.99;73.66;94477.44;5119833;28;20194;-69
2022/12/15 12:01:45;;;;;;;38.88;35.47;;;;;;;8.08;73.14;94483.59;5118398;28;20203;-69
2022/12/15 12:04:18;;;;;;;40.30;36.50;;;;;;;7.94;72.79;94489.50;5119615;28;20192;-72
2022/12/15 12:06:51;;;;;;;46.83;42.53;;;;;;;7.87;73.00;94489.28;5118928;28;20549;-69
2022/12/15 12:09:29;;;;;;;46.28;41.90;;;;;;;8.11;73.36;94491.13;5119304;28;20187;-69
2022/12/15 12:12:04;;;;;;;52.88;48.42;;;;;;;8.10;73.09;94489.56;5118822;28;20175;-69
2022/12/15 12:14:39;;;;;;;46.25;42.25;;;;;;;8.01;72.83;94492.44;5118461;28;20639;-69
2022/12/15 12:17:08;;;;;;;44.42;40.42;;;;;;;8.11;73.31;94493.88;5118250;28;20664;-69
2022/12/15 12:19:38;;;;;;;44.88;40.88;;;;;;;8.13;73.01;94491.56;5119096;27;20187;-69
2022/12/15 12:22:12;;;;;;;44.67;40.67;;;;;;;8.21;73.19;94490.63;5118611;28;20253;-69
2022/12/15 12:24:41;;;;;;;46.97;42.67;;;;;;;8.36;73.06;94494.56;5118337;28;20188;-70
2022/12/15 12:27:11;;;;;;;44.10;39.90;;;;;;;8.41;72.43;94494.31;5118776;28;20204;-69
2022/12/15 12:29:43;;;;;;;43.38;39.47;;;;;;;8.41;72.59;94505.31;5117601;28;20260;-69
2022/12/15 12:32:15;;;;;;;41.40;37.60;;;;;;;8.38;73.32;94509.53;5118540;28;20183;-69
2022/12/15 12:34:53;;;;;;;40.70;37.10;;;;;;;8.39;73.19;94510.38;5118111;28;20196;-69
2022/12/15 12:37:25;;;;;;;38.92;35.63;;;;;;;8.41;72.69;94517.09;5118729;28;20190;-69
2022/12/15 12:39:53;;;;;;;37.63;34.17;;;;;;;8.39;72.77;94513.13;5117624;28;20192;-69
2022/12/15 12:42:25;;;;;;;37.03;33.55;;;;;;;8.35;73.00;94523.97;5118310;28;20219;-69
2022/12/15 12:44:53;;;;;;;38.00;34.47;;;;;;;8.31;72.67;94520.31;5117609;28;20554;-69
2022/12/15 12:47:24;;;;;;;37.40;34.00;;;;;;;8.28;72.63;94515.56;5118454;28;20207;-69
2022/12/15 12:49:54;;;;;;;38.30;34.88;;;;;;;8.23;72.85;94524.03;5116370;28;20200;-69
2022/12/15 12:52:23;;;;;;;37.35;33.95;;;;;;;8.20;72.85;94519.22;5117641;28;20203;-69
2022/12/15 12:54:59;;;;;;;34.95;31.85;;;;;;;8.20;73.17;94525.53;5117096;28;20218;-69
2022/12/15 12:57:37;;;;;;;50.20;45.13;;;;;;;8.16;73.15;94526.59;5117420;28;20595;-69
2022/12/15 13:00:16;;;;;;;42.88;38.88;;;;;;;8.11;72.28;94530.38;5118361;28;20187;-69
2022/12/15 13:02:53;;;;;;;40.83;37.03;;;;;;;8.05;72.07;94531.78;5117542;28;20191;-69
2022/12/15 13:05:31;;;;;;;38.80;35.28;;;;;;;8.03;72.11;94536.84;5117220;28;20245;-69
2022/12/15 13:08:40;;;;;;;37.45;33.97;;;;;;;7.98;72.17;94531.56;5118104;28;20199;-69
2022/12/15 13:11:55;;;;;;;38.35;34.75;;;;;;;7.97;72.41;94532.72;5118031;28;20180;-69
2022/12/15 13:14:30;;;;;;;36.50;33.00;;;;;;;7.92;71.90;94533.00;5117604;28;20199;-69
2022/12/15 13:17:03;;;;;;;35.35;32.05;;;;;;;7.90;71.69;94532.53;5118132;28;20175;-69
2022/12/15 13:20:24;;;;;;;36.67;33.33;;;;;;;7.84;71.68;94540.22;5116771;28;20249;-69
2022/12/15 13:22:52;;;;;;;35.47;32.33;;;;;;;7.76;72.03;94541.16;5117248;28;20207;-69
2022/12/15 13:25:40;;;;;;;35.75;32.38;;;;;;;7.72;72.25;94548.47;5117794;28;20240;-69
2022/12/15 13:28:19;;;;;;;35.28;31.98;;;;;;;7.71;72.40;94552.38;5117449;28;20506;-69
2022/12/15 13:31:23;;;;;;;36.22;32.90;;;;;;;7.66;72.14;94555.34;5117667;28;20206;-69
2022/12/15 13:33:56;;;;;;;37.03;33.60;;;;;;;7.58;71.57;94545.31;5116662;28;20293;-69
2022/12/15 13:37:02;;;;;;;42.92;37.47;;;;;;;7.47;71.73;94547.72;5099976;28;20184;-69
2022/12/15 13:39:55;;;;;;;35.63;32.17;;;;;;;7.42;72.18;94554.25;5117645;28;20179;-69
2022/12/15 13:42:26;;;;;;;34.38;31.17;;;;;;;7.38;72.04;94558.06;5115976;28;20212;-69
2022/12/15 13:44:57;;;;;;;33.45;30.35;;;;;;;7.36;71.55;94563.06;5117505;28;20244;-69
2022/12/15 13:47:26;;;;;;;34.35;31.10;;;;;;;7.31;71.73;94566.06;5116474;28;20571;-69
2022/12/15 13:49:59;;;;;;;35.20;31.52;;;;;;;7.25;71.87;94562.75;5117229;28;20188;-69
2022/12/15 13:52:29;;;;;;;34.05;30.88;;;;;;;7.16;72.23;94571.09;5117604;28;20187;-69
2022/12/15 13:54:59;;;;;;;36.47;33.03;;;;;;;7.14;72.30;94575.31;5117328;28;20191;-69
2022/12/15 13:57:27;;;;;;;36.88;33.47;;;;;;;7.07;71.87;94573.13;5116294;28;20200;-69
2022/12/15 13:59:57;;;;;;;35.47;32.15;;;;;;;7.02;72.09;94567.91;5116775;28;20180;-69
2022/12/15 14:02:26;;;;;;;35.00;31.77;;;;;;;6.97;72.54;94576.31;5115591;28;20211;-69
2022/12/15 14:05:21;;;;;;;34.97;31.67;;;;;;;6.89;72.81;94574.50;5116358;28;20195;-69
2022/12/15 14:07:51;;;;;;;35.10;31.85;;;;;;;6.83;73.12;94584.09;5092420;28;20239;-69
2022/12/15 14:10:19;;;;;;;35.33;32.03;;;;;;;6.76;72.65;94587.41;5116431;28;20211;-69
2022/12/15 14:12:47;;;;;;;33.72;30.42;;;;;;;6.73;73.11;94597.09;5115939;28;20195;-69